createdAt,value
2023-03-26T00:02:06.507Z,99172.42
2023-03-26T00:04:38.815Z,99176.75
2023-03-26T00:07:10.825Z,99177.45
2023-03-26T00:09:41.943Z,99174.21
2023-03-26T00:12:33.898Z,99171.85
2023-03-26T00:15:07.628Z,99170.48
2023-03-26T00:17:38.863Z,99168.66
2023-03-26T00:20:10.855Z,99164.76
2023-03-26T00:23:03.428Z,99163.59
2023-03-26T00:25:35.484Z,99164.98
2023-03-26T00:28:08.076Z,99163.91
2023-03-26T00:30:42.169Z,99155.35
2023-03-26T00:33:26.638Z,99156.19
2023-03-26T00:35:59.231Z,99155.50
2023-03-26T00:38:40.386Z,99158.06
2023-03-26T00:45:29.963Z,99157.70
2023-03-26T00:48:02.603Z,99156.85
2023-03-26T00:50:33.667Z,99149.67
2023-03-26T00:53:04.536Z,99146.97
2023-03-26T00:55:37.939Z,99143.52
2023-03-26T00:58:13.399Z,99143.03
2023-03-26T01:00:57.808Z,99141.64
2023-03-26T01:03:30.885Z,99138.18
2023-03-26T01:06:36.669Z,99139.39
2023-03-26T01:09:17.906Z,99137.30
2023-03-26T01:11:51.652Z,99129.95
2023-03-26T01:14:29.487Z,99132.70
2023-03-26T01:17:04.785Z,99128.27
2023-03-26T01:20:13.265Z,99126.89
2023-03-26T01:23:58.092Z,99122.10
2023-03-26T01:27:01.205Z,99122.61
2023-03-26T01:29:57.530Z,99122.95
2023-03-26T01:32:34.685Z,99126.01
2023-03-26T01:35:28.013Z,99121.02
2023-03-26T01:38:41.078Z,99118.61
2023-03-26T01:41:30.216Z,99118.97
2023-03-26T01:44:18.746Z,99112.10
2023-03-26T01:46:50.641Z,99108.37
2023-03-26T01:49:22.397Z,99113.52
2023-03-26T01:53:03.847Z,99114.43
2023-03-26T01:56:13.901Z,99110.66
2023-03-26T01:58:53.727Z,99105.67
2023-03-26T02:01:55.214Z,99105.14
2023-03-26T02:12:31.293Z,99098.58
2023-03-26T02:15:06.146Z,99100.33
2023-03-26T02:17:40.822Z,99096.10
2023-03-26T02:20:14.692Z,99093.73
2023-03-26T02:22:46.366Z,99092.02
2023-03-26T02:25:35.735Z,99088.05
2023-03-26T02:28:06.842Z,99085.42
2023-03-26T02:30:40.036Z,99081.98
2023-03-26T02:33:15.893Z,99081.81
2023-03-26T02:36:02.377Z,99079.80
2023-03-26T02:38:35.582Z,99075.52
2023-03-26T02:41:08.646Z,99074.89
2023-03-26T02:44:26.484Z,99075.77
2023-03-26T02:47:03.344Z,99072.40
2023-03-26T02:50:12.466Z,99068.10
2023-03-26T02:53:31.364Z,99069.80
2023-03-26T02:56:23.401Z,99073.91
2023-03-26T02:59:22.408Z,99066.02
2023-03-26T03:02:40.582Z,99067.36
2023-03-26T03:05:39.575Z,99065.72
2023-03-26T03:08:29.966Z,99061.80
2023-03-26T03:11:15.845Z,99062.52
2023-03-26T03:13:48.590Z,99059.09
2023-03-26T03:16:22.596Z,99058.73
2023-03-26T03:19:02.279Z,99061.98
2023-03-26T03:21:43.227Z,99060.80
2023-03-26T03:24:14.379Z,99061.15
2023-03-26T03:26:50.746Z,99062.16
2023-03-26T03:29:43.970Z,99065.43
2023-03-26T03:32:37.959Z,99068.19
2023-03-26T03:35:09.380Z,99064.77
2023-03-26T03:37:40.958Z,99065.82
2023-03-26T03:40:12.652Z,99062.59
2023-03-26T03:42:58.963Z,99059.95
2023-03-26T03:46:17.337Z,99066.30
2023-03-26T03:48:52.790Z,99065.42
2023-03-26T03:52:19.788Z,99061.12
2023-03-26T03:54:51.618Z,99060.21
2023-03-26T03:57:46.110Z,99058.52
2023-03-26T04:01:04.915Z,99060.96
2023-03-26T04:03:59.073Z,99059.80
2023-03-26T04:07:17.055Z,99052.80
2023-03-26T04:10:30.831Z,99051.23
2023-03-26T04:13:17.647Z,99048.80
2023-03-26T04:16:08.858Z,99044.83
2023-03-26T04:18:45.554Z,99044.27
2023-03-26T04:21:18.304Z,99046.84
2023-03-26T04:23:49.725Z,99046.67
2023-03-26T04:26:43.207Z,99043.97
2023-03-26T04:30:02.781Z,99040.58
2023-03-26T04:32:35.091Z,99040.48
2023-03-26T04:35:07.593Z,99036.19
2023-03-26T04:37:44.732Z,99032.23
2023-03-26T04:40:51.254Z,99033.23
2023-03-26T04:43:35.858Z,99032.05
2023-03-26T04:46:25.667Z,99023.98
2023-03-26T04:49:05.263Z,99025.02
2023-03-26T04:55:37.391Z,99019.72
2023-03-26T04:58:16.626Z,99015.93
2023-03-26T05:00:56.652Z,99018.70
2023-03-26T05:03:32.904Z,99016.81
2023-03-26T05:06:07.973Z,99015.94
2023-03-26T05:08:42.829Z,99014.36
2023-03-26T05:11:19.041Z,99018.68
2023-03-26T05:13:57.959Z,99017.32
2023-03-26T05:16:30.287Z,99019.55
2023-03-26T05:19:05.694Z,99021.64
2023-03-26T05:21:38.168Z,99026.84
2023-03-26T05:24:31.805Z,99022.60
2023-03-26T05:27:05.519Z,99022.55
2023-03-26T05:29:36.703Z,99024.41
2023-03-26T05:32:08.730Z,99023.38
2023-03-26T05:34:41.313Z,99024.20
2023-03-26T05:37:12.054Z,99022.67
2023-03-26T05:40:29.301Z,99017.88
2023-03-26T05:43:05.564Z,99020.30
2023-03-26T05:45:38.807Z,99019.13
2023-03-26T05:48:29.542Z,99023.92
2023-03-26T05:51:29.370Z,99023.23
2023-03-26T05:54:23.952Z,99026.98
2023-03-26T05:57:12.959Z,99028.20
2023-03-26T06:00:05.034Z,99027.99
2023-03-26T06:02:50.649Z,99024.75
2023-03-26T06:05:59.293Z,99026.30
2023-03-26T06:08:40.107Z,99026.14
2023-03-26T06:11:32.611Z,99029.25
2023-03-26T06:14:04.406Z,99024.81
2023-03-26T06:20:39.408Z,99025.91
2023-03-26T06:23:58.373Z,99025.38
2023-03-26T06:26:38.469Z,99024.54
2023-03-26T06:29:16.193Z,99026.59
2023-03-26T06:31:57.083Z,99029.81
2023-03-26T06:34:53.631Z,99026.77
2023-03-26T06:37:24.782Z,99029.38
2023-03-26T06:40:22.463Z,99030.75
2023-03-26T06:43:34.108Z,99028.52
2023-03-26T06:46:24.239Z,99031.41
2023-03-26T06:49:21.345Z,99025.73
2023-03-26T06:52:16.222Z,99026.42
2023-03-26T06:55:32.357Z,99026.75
2023-03-26T06:58:28.933Z,99029.66
2023-03-26T07:01:26.169Z,99022.66
2023-03-26T07:04:15.247Z,99026.12
2023-03-26T07:07:05.055Z,99027.34
2023-03-26T07:09:54.403Z,99025.81
2023-03-26T07:19:57.947Z,99024.13
2023-03-26T07:22:30.329Z,99021.06
2023-03-26T07:25:21.697Z,99018.52
2023-03-26T07:29:03.640Z,99024.13
2023-03-26T07:32:17.830Z,99020.32
2023-03-26T07:35:46.088Z,99018.77
2023-03-26T07:39:38.328Z,99019.08
2023-03-26T07:44:06.039Z,99023.55
